Catalina, California
Current Conditions -  °F | °C
As of 9:51 PM on Sunday 25 Jan 2015 (Local Time) from KAVX Reporting Station
Few Clouds Few Clouds  
Wind Chill: 67°   Ceiling: Unl
Heat Index: 67°   Visibility: 10mi
Dew Point: 20°   Wind: 6mph
Humidity: 17%   Direction: 40°NE
Pressure: 30.09"   Gusts: NA
Location:  33.382°N, 118.433°W
Report Text: KAVX 260551Z AUTO 04005KT 10SM FEW120 19/M07 A3009 RMK AO2 SLP165 T01941067 10217 20183 51008
Loading
Personal Weather Stations






























Interactive Weather Map New forecast layout! Learn more

10-Day Weather Forecast

Advertisements
Track Severe Weather on mobile